sensor_id;sensor_type;location;lat;lon;timestamp;P1;durP1;ratioP1;P2;durP2;ratioP2
65162;SDS011;51751;55.714;37.436;2022-07-10T00:00:35;5.00;;;3.00;;
65162;SDS011;51751;55.714;37.436;2022-07-10T00:03:02;4.03;;;3.05;;
65162;SDS011;51751;55.714;37.436;2022-07-10T00:05:28;3.90;;;3.42;;
65162;SDS011;51751;55.714;37.436;2022-07-10T00:07:54;4.75;;;3.35;;
65162;SDS011;51751;55.714;37.436;2022-07-10T00:10:21;4.82;;;3.10;;
65162;SDS011;51751;55.714;37.436;2022-07-10T00:12:48;5.70;;;3.47;;
65162;SDS011;51751;55.714;37.436;2022-07-10T00:15:17;5.55;;;3.45;;
65162;SDS011;51751;55.714;37.436;2022-07-10T00:17:46;4.93;;;3.50;;
65162;SDS011;51751;55.714;37.436;2022-07-10T00:20:13;4.70;;;3.55;;
65162;SDS011;51751;55.714;37.436;2022-07-10T00:22:39;6.40;;;3.60;;
65162;SDS011;51751;55.714;37.436;2022-07-10T00:25:07;5.65;;;3.63;;
65162;SDS011;51751;55.714;37.436;2022-07-10T00:27:36;7.07;;;3.60;;
65162;SDS011;51751;55.714;37.436;2022-07-10T00:30:02;5.43;;;3.80;;
65162;SDS011;51751;55.714;37.436;2022-07-10T00:32:30;5.88;;;3.60;;
65162;SDS011;51751;55.714;37.436;2022-07-10T00:34:59;4.13;;;3.47;;
65162;SDS011;51751;55.714;37.436;2022-07-10T00:37:25;9.57;;;3.80;;
65162;SDS011;51751;55.714;37.436;2022-07-10T00:39:51;6.28;;;4.05;;
65162;SDS011;51751;55.714;37.436;2022-07-10T00:42:17;6.40;;;3.47;;
65162;SDS011;51751;55.714;37.436;2022-07-10T00:44:43;10.82;;;4.47;;
65162;SDS011;51751;55.714;37.436;2022-07-10T00:47:09;9.77;;;3.90;;
65162;SDS011;51751;55.714;37.436;2022-07-10T00:49:36;5.43;;;4.30;;
65162;SDS011;51751;55.714;37.436;2022-07-10T00:52:06;7.22;;;4.10;;
65162;SDS011;51751;55.714;37.436;2022-07-10T00:54:33;5.40;;;3.90;;
65162;SDS011;51751;55.714;37.436;2022-07-10T00:57:00;7.40;;;4.15;;
65162;SDS011;51751;55.714;37.436;2022-07-10T00:59:26;6.15;;;3.85;;
65162;SDS011;51751;55.714;37.436;2022-07-10T01:04:35;5.43;;;4.60;;
65162;SDS011;51751;55.714;37.436;2022-07-10T01:07:02;9.02;;;4.45;;
65162;SDS011;51751;55.714;37.436;2022-07-10T01:09:31;9.55;;;4.47;;
65162;SDS011;51751;55.714;37.436;2022-07-10T01:12:18;8.80;;;4.78;;
65162;SDS011;51751;55.714;37.436;2022-07-10T01:14:48;7.88;;;4.60;;
65162;SDS011;51751;55.714;37.436;2022-07-10T01:17:14;7.25;;;4.45;;
65162;SDS011;51751;55.714;37.436;2022-07-10T01:19:45;8.05;;;4.65;;
65162;SDS011;51751;55.714;37.436;2022-07-10T01:22:11;7.75;;;4.85;;
65162;SDS011;51751;55.714;37.436;2022-07-10T01:24:37;7.55;;;5.40;;
65162;SDS011;51751;55.714;37.436;2022-07-10T01:27:03;8.43;;;5.25;;
65162;SDS011;51751;55.714;37.436;2022-07-10T01:29:29;8.93;;;5.00;;
65162;SDS011;51751;55.714;37.436;2022-07-10T01:31:55;8.07;;;4.57;;
65162;SDS011;51751;55.714;37.436;2022-07-10T01:34:22;9.45;;;4.65;;
65162;SDS011;51751;55.714;37.436;2022-07-10T01:37:07;7.68;;;5.00;;
65162;SDS011;51751;55.714;37.436;2022-07-10T01:39:33;10.05;;;4.70;;
65162;SDS011;51751;55.714;37.436;2022-07-10T01:41:59;13.05;;;4.78;;
65162;SDS011;51751;55.714;37.436;2022-07-10T01:44:24;10.32;;;4.70;;
65162;SDS011;51751;55.714;37.436;2022-07-10T01:46:50;9.07;;;4.72;;
65162;SDS011;51751;55.714;37.436;2022-07-10T01:49:17;9.20;;;5.30;;
65162;SDS011;51751;55.714;37.436;2022-07-10T01:51:43;9.02;;;4.63;;
65162;SDS011;51751;55.714;37.436;2022-07-10T01:54:09;11.27;;;4.70;;
65162;SDS011;51751;55.714;37.436;2022-07-10T01:56:35;8.45;;;4.50;;
65162;SDS011;51751;55.714;37.436;2022-07-10T01:59:01;6.47;;;4.32;;
65162;SDS011;51751;55.714;37.436;2022-07-10T02:01:28;9.27;;;4.88;;
65162;SDS011;51751;55.714;37.436;2022-07-10T02:03:55;8.20;;;5.10;;
65162;SDS011;51751;55.714;37.436;2022-07-10T02:06:39;7.82;;;4.15;;
65162;SDS011;51751;55.714;37.436;2022-07-10T02:09:05;9.18;;;4.50;;
65162;SDS011;51751;55.714;37.436;2022-07-10T02:11:31;8.23;;;5.10;;
65162;SDS011;51751;55.714;37.436;2022-07-10T02:13:57;7.18;;;4.20;;
65162;SDS011;51751;55.714;37.436;2022-07-10T02:16:23;8.10;;;4.53;;
65162;SDS011;51751;55.714;37.436;2022-07-10T02:18:49;6.30;;;3.35;;
65162;SDS011;51751;55.714;37.436;2022-07-10T02:21:15;8.60;;;4.43;;
65162;SDS011;51751;55.714;37.436;2022-07-10T02:23:41;8.00;;;4.22;;
65162;SDS011;51751;55.714;37.436;2022-07-10T02:26:07;9.65;;;3.90;;
65162;SDS011;51751;55.714;37.436;2022-07-10T02:28:34;6.80;;;3.65;;
65162;SDS011;51751;55.714;37.436;2022-07-10T02:31:03;4.80;;;3.22;;
65162;SDS011;51751;55.714;37.436;2022-07-10T02:33:29;4.35;;;3.30;;
65162;SDS011;51751;55.714;37.436;2022-07-10T02:35:54;5.72;;;3.53;;
65162;SDS011;51751;55.714;37.436;2022-07-10T02:38:21;6.45;;;3.40;;
65162;SDS011;51751;55.714;37.436;2022-07-10T02:40:47;5.68;;;3.70;;
65162;SDS011;51751;55.714;37.436;2022-07-10T02:43:15;9.63;;;3.15;;
65162;SDS011;51751;55.714;37.436;2022-07-10T02:45:41;13.15;;;3.50;;
65162;SDS011;51751;55.714;37.436;2022-07-10T02:48:07;8.38;;;3.70;;
65162;SDS011;51751;55.714;37.436;2022-07-10T02:50:33;7.72;;;3.30;;
65162;SDS011;51751;55.714;37.436;2022-07-10T02:53:02;5.70;;;3.17;;
65162;SDS011;51751;55.714;37.436;2022-07-10T02:55:28;5.75;;;3.30;;
65162;SDS011;51751;55.714;37.436;2022-07-10T02:57:59;5.60;;;3.22;;
65162;SDS011;51751;55.714;37.436;2022-07-10T03:00:31;5.70;;;3.53;;
65162;SDS011;51751;55.714;37.436;2022-07-10T03:03:03;5.35;;;3.42;;
65162;SDS011;51751;55.714;37.436;2022-07-10T03:05:29;4.72;;;3.53;;
65162;SDS011;51751;55.714;37.436;2022-07-10T03:07:55;6.75;;;3.20;;
65162;SDS011;51751;55.714;37.436;2022-07-10T03:10:21;5.15;;;3.67;;
65162;SDS011;51751;55.714;37.436;2022-07-10T03:12:52;8.20;;;3.63;;
65162;SDS011;51751;55.714;37.436;2022-07-10T03:15:18;6.60;;;3.60;;
65162;SDS011;51751;55.714;37.436;2022-07-10T03:17:44;7.93;;;3.22;;
65162;SDS011;51751;55.714;37.436;2022-07-10T03:20:29;4.15;;;3.00;;
65162;SDS011;51751;55.714;37.436;2022-07-10T03:22:55;4.18;;;3.17;;
65162;SDS011;51751;55.714;37.436;2022-07-10T03:25:21;5.35;;;3.20;;
65162;SDS011;51751;55.714;37.436;2022-07-10T03:27:47;5.38;;;3.40;;
65162;SDS011;51751;55.714;37.436;2022-07-10T03:30:13;6.55;;;3.80;;
65162;SDS011;51751;55.714;37.436;2022-07-10T03:32:39;5.90;;;3.28;;
65162;SDS011;51751;55.714;37.436;2022-07-10T03:35:05;6.93;;;3.40;;
65162;SDS011;51751;55.714;37.436;2022-07-10T03:37:31;5.78;;;3.50;;
65162;SDS011;51751;55.714;37.436;2022-07-10T03:39:57;9.27;;;3.63;;
65162;SDS011;51751;55.714;37.436;2022-07-10T03:42:23;5.97;;;3.35;;
65162;SDS011;51751;55.714;37.436;2022-07-10T03:44:48;6.28;;;3.58;;
65162;SDS011;51751;55.714;37.436;2022-07-10T03:47:14;9.07;;;3.40;;
65162;SDS011;51751;55.714;37.436;2022-07-10T03:49:40;8.25;;;3.40;;
65162;SDS011;51751;55.714;37.436;2022-07-10T03:52:07;4.65;;;3.33;;
65162;SDS011;51751;55.714;37.436;2022-07-10T03:54:53;8.00;;;3.83;;
65162;SDS011;51751;55.714;37.436;2022-07-10T03:57:19;8.10;;;3.80;;
65162;SDS011;51751;55.714;37.436;2022-07-10T04:00:05;8.70;;;3.70;;
65162;SDS011;51751;55.714;37.436;2022-07-10T04:02:37;7.05;;;3.80;;
65162;SDS011;51751;55.714;37.436;2022-07-10T04:05:07;7.78;;;4.10;;
65162;SDS011;51751;55.714;37.436;2022-07-10T04:07:34;7.28;;;4.00;;
65162;SDS011;51751;55.714;37.436;2022-07-10T04:10:01;6.40;;;3.70;;
65162;SDS011;51751;55.714;37.436;2022-07-10T04:12:28;6.85;;;3.55;;
65162;SDS011;51751;55.714;37.436;2022-07-10T04:14:53;5.68;;;3.80;;
65162;SDS011;51751;55.714;37.436;2022-07-10T04:17:20;6.72;;;3.53;;
65162;SDS011;51751;55.714;37.436;2022-07-10T04:19:46;6.55;;;3.60;;
65162;SDS011;51751;55.714;37.436;2022-07-10T04:22:12;5.40;;;3.50;;
65162;SDS011;51751;55.714;37.436;2022-07-10T04:24:39;5.63;;;3.50;;
65162;SDS011;51751;55.714;37.436;2022-07-10T04:27:06;5.97;;;3.97;;
65162;SDS011;51751;55.714;37.436;2022-07-10T04:29:32;7.65;;;4.00;;
65162;SDS011;51751;55.714;37.436;2022-07-10T04:31:58;9.80;;;4.03;;
65162;SDS011;51751;55.714;37.436;2022-07-10T04:34:24;8.85;;;4.38;;
65162;SDS011;51751;55.714;37.436;2022-07-10T04:36:50;8.70;;;4.28;;
65162;SDS011;51751;55.714;37.436;2022-07-10T04:39:16;6.07;;;4.55;;
65162;SDS011;51751;55.714;37.436;2022-07-10T04:41:42;9.40;;;4.80;;
65162;SDS011;51751;55.714;37.436;2022-07-10T04:44:08;6.60;;;4.78;;
65162;SDS011;51751;55.714;37.436;2022-07-10T04:46:34;10.43;;;4.68;;
65162;SDS011;51751;55.714;37.436;2022-07-10T04:49:00;6.97;;;4.93;;
65162;SDS011;51751;55.714;37.436;2022-07-10T04:51:26;7.38;;;4.60;;
65162;SDS011;51751;55.714;37.436;2022-07-10T04:53:54;5.50;;;4.20;;
65162;SDS011;51751;55.714;37.436;2022-07-10T04:56:21;6.88;;;4.57;;
65162;SDS011;51751;55.714;37.436;2022-07-10T04:58:47;6.72;;;4.40;;
65162;SDS011;51751;55.714;37.436;2022-07-10T05:01:13;7.57;;;4.72;;
65162;SDS011;51751;55.714;37.436;2022-07-10T05:03:42;8.00;;;4.75;;
65162;SDS011;51751;55.714;37.436;2022-07-10T05:06:08;6.88;;;4.80;;
65162;SDS011;51751;55.714;37.436;2022-07-10T05:08:34;7.95;;;4.68;;
65162;SDS011;51751;55.714;37.436;2022-07-10T05:11:01;7.85;;;4.75;;
65162;SDS011;51751;55.714;37.436;2022-07-10T05:13:28;9.13;;;4.70;;
65162;SDS011;51751;55.714;37.436;2022-07-10T05:15:53;7.60;;;4.95;;
65162;SDS011;51751;55.714;37.436;2022-07-10T05:18:20;5.25;;;4.53;;
65162;SDS011;51751;55.714;37.436;2022-07-10T05:20:45;5.93;;;4.85;;
65162;SDS011;51751;55.714;37.436;2022-07-10T05:23:32;9.35;;;5.00;;
65162;SDS011;51751;55.714;37.436;2022-07-10T05:25:58;7.78;;;5.20;;
65162;SDS011;51751;55.714;37.436;2022-07-10T05:28:24;6.85;;;5.07;;
65162;SDS011;51751;55.714;37.436;2022-07-10T05:30:49;10.50;;;5.47;;
65162;SDS011;51751;55.714;37.436;2022-07-10T05:33:21;9.98;;;5.55;;
65162;SDS011;51751;55.714;37.436;2022-07-10T05:35:47;11.05;;;6.05;;
65162;SDS011;51751;55.714;37.436;2022-07-10T05:38:13;8.80;;;5.68;;
65162;SDS011;51751;55.714;37.436;2022-07-10T05:40:39;8.95;;;5.57;;
65162;SDS011;51751;55.714;37.436;2022-07-10T05:43:14;11.45;;;5.85;;
65162;SDS011;51751;55.714;37.436;2022-07-10T05:45:40;7.80;;;5.43;;
65162;SDS011;51751;55.714;37.436;2022-07-10T05:48:06;8.90;;;5.30;;
65162;SDS011;51751;55.714;37.436;2022-07-10T05:50:32;10.68;;;5.50;;
65162;SDS011;51751;55.714;37.436;2022-07-10T05:53:03;8.73;;;6.00;;
65162;SDS011;51751;55.714;37.436;2022-07-10T05:55:31;7.88;;;6.40;;
65162;SDS011;51751;55.714;37.436;2022-07-10T05:57:57;9.68;;;5.45;;
65162;SDS011;51751;55.714;37.436;2022-07-10T06:00:24;7.82;;;5.35;;
65162;SDS011;51751;55.714;37.436;2022-07-10T06:02:51;9.68;;;5.75;;
65162;SDS011;51751;55.714;37.436;2022-07-10T06:05:23;14.98;;;6.03;;
65162;SDS011;51751;55.714;37.436;2022-07-10T06:07:49;9.10;;;5.97;;
65162;SDS011;51751;55.714;37.436;2022-07-10T06:10:15;9.55;;;6.05;;
65162;SDS011;51751;55.714;37.436;2022-07-10T06:12:41;7.88;;;6.00;;
65162;SDS011;51751;55.714;37.436;2022-07-10T06:15:10;10.25;;;5.90;;
65162;SDS011;51751;55.714;37.436;2022-07-10T06:17:36;10.27;;;5.68;;
65162;SDS011;51751;55.714;37.436;2022-07-10T06:20:02;12.98;;;5.70;;
65162;SDS011;51751;55.714;37.436;2022-07-10T06:22:31;12.23;;;6.30;;
65162;SDS011;51751;55.714;37.436;2022-07-10T06:25:05;8.60;;;6.45;;
65162;SDS011;51751;55.714;37.436;2022-07-10T06:27:32;11.73;;;6.20;;
65162;SDS011;51751;55.714;37.436;2022-07-10T06:29:59;8.98;;;6.07;;
65162;SDS011;51751;55.714;37.436;2022-07-10T06:32:25;8.98;;;6.20;;
65162;SDS011;51751;55.714;37.436;2022-07-10T06:34:52;14.93;;;6.30;;
65162;SDS011;51751;55.714;37.436;2022-07-10T06:37:32;13.02;;;6.25;;
65162;SDS011;51751;55.714;37.436;2022-07-10T06:39:58;10.85;;;6.85;;
65162;SDS011;51751;55.714;37.436;2022-07-10T06:42:24;9.15;;;6.15;;
65162;SDS011;51751;55.714;37.436;2022-07-10T06:44:53;12.10;;;6.47;;
65162;SDS011;51751;55.714;37.436;2022-07-10T06:47:19;10.35;;;6.50;;
65162;SDS011;51751;55.714;37.436;2022-07-10T06:50:04;10.82;;;6.32;;
65162;SDS011;51751;55.714;37.436;2022-07-10T06:52:34;12.05;;;6.72;;
65162;SDS011;51751;55.714;37.436;2022-07-10T06:55:01;13.18;;;7.40;;
65162;SDS011;51751;55.714;37.436;2022-07-10T06:57:28;18.15;;;7.45;;
65162;SDS011;51751;55.714;37.436;2022-07-10T06:59:54;12.48;;;7.30;;
65162;SDS011;51751;55.714;37.436;2022-07-10T07:02:23;14.52;;;7.32;;
65162;SDS011;51751;55.714;37.436;2022-07-10T07:04:49;13.07;;;7.47;;
65162;SDS011;51751;55.714;37.436;2022-07-10T07:07:15;11.65;;;8.02;;
65162;SDS011;51751;55.714;37.436;2022-07-10T07:09:44;15.07;;;7.65;;
65162;SDS011;51751;55.714;37.436;2022-07-10T07:12:15;12.23;;;7.90;;
65162;SDS011;51751;55.714;37.436;2022-07-10T07:14:45;13.48;;;7.50;;
65162;SDS011;51751;55.714;37.436;2022-07-10T07:17:12;15.00;;;8.07;;
65162;SDS011;51751;55.714;37.436;2022-07-10T07:19:40;10.10;;;6.60;;
65162;SDS011;51751;55.714;37.436;2022-07-10T07:22:25;11.63;;;6.07;;
65162;SDS011;51751;55.714;37.436;2022-07-10T07:25:09;11.25;;;5.30;;
65162;SDS011;51751;55.714;37.436;2022-07-10T07:27:37;8.82;;;4.95;;
65162;SDS011;51751;55.714;37.436;2022-07-10T07:30:08;8.13;;;5.72;;
65162;SDS011;51751;55.714;37.436;2022-07-10T07:32:59;13.98;;;6.53;;
65162;SDS011;51751;55.714;37.436;2022-07-10T07:35:25;8.20;;;6.15;;
65162;SDS011;51751;55.714;37.436;2022-07-10T07:37:53;10.65;;;5.97;;
65162;SDS011;51751;55.714;37.436;2022-07-10T07:40:22;14.23;;;6.25;;
65162;SDS011;51751;55.714;37.436;2022-07-10T07:42:50;9.55;;;5.68;;
65162;SDS011;51751;55.714;37.436;2022-07-10T07:45:16;8.48;;;6.43;;
65162;SDS011;51751;55.714;37.436;2022-07-10T07:47:49;8.93;;;5.60;;
65162;SDS011;51751;55.714;37.436;2022-07-10T07:50:21;12.18;;;5.97;;
65162;SDS011;51751;55.714;37.436;2022-07-10T07:52:54;20.38;;;5.80;;
65162;SDS011;51751;55.714;37.436;2022-07-10T07:55:26;15.10;;;6.22;;
65162;SDS011;51751;55.714;37.436;2022-07-10T07:57:53;15.18;;;6.18;;
65162;SDS011;51751;55.714;37.436;2022-07-10T08:00:20;12.48;;;6.70;;
65162;SDS011;51751;55.714;37.436;2022-07-10T08:02:48;12.55;;;6.00;;
65162;SDS011;51751;55.714;37.436;2022-07-10T08:05:17;17.58;;;6.20;;
65162;SDS011;51751;55.714;37.436;2022-07-10T08:08:07;13.32;;;6.05;;
65162;SDS011;51751;55.714;37.436;2022-07-10T08:10:35;7.85;;;5.30;;
65162;SDS011;51751;55.714;37.436;2022-07-10T08:13:04;12.98;;;5.72;;
65162;SDS011;51751;55.714;37.436;2022-07-10T08:15:30;7.35;;;5.50;;
65162;SDS011;51751;55.714;37.436;2022-07-10T08:17:57;13.10;;;5.80;;
65162;SDS011;51751;55.714;37.436;2022-07-10T08:20:24;11.00;;;6.05;;
65162;SDS011;51751;55.714;37.436;2022-07-10T08:22:54;11.48;;;5.90;;
65162;SDS011;51751;55.714;37.436;2022-07-10T08:25:20;7.38;;;5.60;;
65162;SDS011;51751;55.714;37.436;2022-07-10T08:27:47;9.82;;;5.45;;
65162;SDS011;51751;55.714;37.436;2022-07-10T08:30:13;8.60;;;6.20;;
65162;SDS011;51751;55.714;37.436;2022-07-10T08:32:42;11.55;;;6.00;;
65162;SDS011;51751;55.714;37.436;2022-07-10T08:35:08;11.82;;;5.50;;
65162;SDS011;51751;55.714;37.436;2022-07-10T08:37:41;15.20;;;6.00;;
65162;SDS011;51751;55.714;37.436;2022-07-10T08:40:21;7.10;;;6.00;;
65162;SDS011;51751;55.714;37.436;2022-07-10T08:42:48;8.15;;;6.07;;
65162;SDS011;51751;55.714;37.436;2022-07-10T08:45:14;10.93;;;5.60;;
65162;SDS011;51751;55.714;37.436;2022-07-10T08:47:41;10.93;;;6.00;;
65162;SDS011;51751;55.714;37.436;2022-07-10T08:50:26;7.07;;;5.32;;
65162;SDS011;51751;55.714;37.436;2022-07-10T08:53:16;8.02;;;5.53;;
65162;SDS011;51751;55.714;37.436;2022-07-10T08:55:43;8.45;;;5.68;;
65162;SDS011;51751;55.714;37.436;2022-07-10T08:58:09;7.57;;;5.10;;
65162;SDS011;51751;55.714;37.436;2022-07-10T09:00:36;9.60;;;5.35;;
65162;SDS011;51751;55.714;37.436;2022-07-10T09:03:05;7.32;;;5.78;;
65162;SDS011;51751;55.714;37.436;2022-07-10T09:05:30;13.35;;;5.78;;
65162;SDS011;51751;55.714;37.436;2022-07-10T09:07:57;14.27;;;5.32;;
65162;SDS011;51751;55.714;37.436;2022-07-10T09:10:27;9.75;;;5.68;;
65162;SDS011;51751;55.714;37.436;2022-07-10T09:12:57;10.30;;;4.93;;
65162;SDS011;51751;55.714;37.436;2022-07-10T09:15:28;7.47;;;5.13;;
65162;SDS011;51751;55.714;37.436;2022-07-10T09:17:58;7.82;;;4.60;;
65162;SDS011;51751;55.714;37.436;2022-07-10T09:20:30;7.90;;;4.78;;
65162;SDS011;51751;55.714;37.436;2022-07-10T09:23:19;7.35;;;4.20;;
65162;SDS011;51751;55.714;37.436;2022-07-10T09:25:51;7.47;;;3.70;;
65162;SDS011;51751;55.714;37.436;2022-07-10T09:28:18;7.57;;;3.90;;
65162;SDS011;51751;55.714;37.436;2022-07-10T09:30:45;9.48;;;4.03;;
65162;SDS011;51751;55.714;37.436;2022-07-10T09:41:16;8.00;;;4.15;;
65162;SDS011;51751;55.714;37.436;2022-07-10T09:44:02;10.07;;;4.20;;
65162;SDS011;51751;55.714;37.436;2022-07-10T09:46:34;8.32;;;4.63;;
65162;SDS011;51751;55.714;37.436;2022-07-10T09:49:02;6.40;;;4.10;;
65162;SDS011;51751;55.714;37.436;2022-07-10T09:51:42;8.40;;;4.20;;
65162;SDS011;51751;55.714;37.436;2022-07-10T09:54:09;12.20;;;4.20;;
65162;SDS011;51751;55.714;37.436;2022-07-10T09:56:42;6.78;;;3.70;;
65162;SDS011;51751;55.714;37.436;2022-07-10T09:59:12;8.95;;;3.22;;
65162;SDS011;51751;55.714;37.436;2022-07-10T10:01:57;8.50;;;3.38;;
65162;SDS011;51751;55.714;37.436;2022-07-10T10:04:25;5.72;;;3.20;;
65162;SDS011;51751;55.714;37.436;2022-07-10T10:06:56;8.32;;;3.47;;
65162;SDS011;51751;55.714;37.436;2022-07-10T10:09:26;8.70;;;3.55;;
65162;SDS011;51751;55.714;37.436;2022-07-10T10:11:55;4.65;;;3.42;;
65162;SDS011;51751;55.714;37.436;2022-07-10T10:14:24;9.55;;;3.47;;
65162;SDS011;51751;55.714;37.436;2022-07-10T10:16:53;8.38;;;4.13;;
65162;SDS011;51751;55.714;37.436;2022-07-10T10:19:20;8.07;;;3.63;;
65162;SDS011;51751;55.714;37.436;2022-07-10T10:22:07;4.97;;;3.80;;
65162;SDS011;51751;55.714;37.436;2022-07-10T10:24:35;9.45;;;3.53;;
65162;SDS011;51751;55.714;37.436;2022-07-10T10:27:02;6.05;;;3.55;;
65162;SDS011;51751;55.714;37.436;2022-07-10T10:29:30;6.43;;;3.50;;
65162;SDS011;51751;55.714;37.436;2022-07-10T10:31:57;5.57;;;3.40;;
65162;SDS011;51751;55.714;37.436;2022-07-10T10:34:42;5.80;;;3.40;;
65162;SDS011;51751;55.714;37.436;2022-07-10T10:39:53;8.80;;;3.38;;
65162;SDS011;51751;55.714;37.436;2022-07-10T10:42:39;5.60;;;3.63;;
65162;SDS011;51751;55.714;37.436;2022-07-10T10:45:33;7.30;;;3.42;;
65162;SDS011;51751;55.714;37.436;2022-07-10T10:53:24;5.63;;;2.70;;
65162;SDS011;51751;55.714;37.436;2022-07-10T11:01:03;5.45;;;2.80;;
65162;SDS011;51751;55.714;37.436;2022-07-10T11:03:29;3.83;;;2.80;;
65162;SDS011;51751;55.714;37.436;2022-07-10T11:05:58;6.75;;;3.17;;
65162;SDS011;51751;55.714;37.436;2022-07-10T11:08:37;5.10;;;2.90;;
65162;SDS011;51751;55.714;37.436;2022-07-10T11:11:39;6.13;;;3.00;;
65162;SDS011;51751;55.714;37.436;2022-07-10T11:13:58;11.05;;;2.92;;
65162;SDS011;51751;55.714;37.436;2022-07-10T11:16:24;6.32;;;3.28;;
65162;SDS011;51751;55.714;37.436;2022-07-10T11:18:53;5.97;;;3.13;;
65162;SDS011;51751;55.714;37.436;2022-07-10T11:21:23;5.40;;;2.97;;
65162;SDS011;51751;55.714;37.436;2022-07-10T11:23:56;8.50;;;3.00;;
65162;SDS011;51751;55.714;37.436;2022-07-10T11:29:38;7.20;;;2.78;;
65162;SDS011;51751;55.714;37.436;2022-07-10T11:32:05;6.97;;;2.65;;
65162;SDS011;51751;55.714;37.436;2022-07-10T11:34:34;6.70;;;2.85;;
65162;SDS011;51751;55.714;37.436;2022-07-10T11:37:13;5.43;;;2.50;;
65162;SDS011;51751;55.714;37.436;2022-07-10T11:39:42;4.50;;;2.70;;
65162;SDS011;51751;55.714;37.436;2022-07-10T11:42:08;10.02;;;2.88;;
65162;SDS011;51751;55.714;37.436;2022-07-10T11:44:35;5.57;;;2.90;;
65162;SDS011;51751;55.714;37.436;2022-07-10T11:47:01;6.05;;;3.10;;
65162;SDS011;51751;55.714;37.436;2022-07-10T11:49:28;6.05;;;2.70;;
65162;SDS011;51751;55.714;37.436;2022-07-10T11:52:00;8.82;;;3.05;;
65162;SDS011;51751;55.714;37.436;2022-07-10T11:54:27;8.05;;;2.80;;
65162;SDS011;51751;55.714;37.436;2022-07-10T11:56:55;8.35;;;2.90;;
65162;SDS011;51751;55.714;37.436;2022-07-10T11:59:25;8.43;;;3.00;;
65162;SDS011;51751;55.714;37.436;2022-07-10T12:01:54;7.82;;;3.05;;
65162;SDS011;51751;55.714;37.436;2022-07-10T12:04:24;7.40;;;2.80;;
65162;SDS011;51751;55.714;37.436;2022-07-10T12:06:54;6.13;;;2.80;;
65162;SDS011;51751;55.714;37.436;2022-07-10T12:09:21;5.45;;;2.70;;
65162;SDS011;51751;55.714;37.436;2022-07-10T12:11:58;6.40;;;2.75;;
65162;SDS011;51751;55.714;37.436;2022-07-10T12:14:34;8.85;;;3.10;;
65162;SDS011;51751;55.714;37.436;2022-07-10T12:17:00;5.05;;;2.90;;
65162;SDS011;51751;55.714;37.436;2022-07-10T12:19:30;6.50;;;2.90;;
65162;SDS011;51751;55.714;37.436;2022-07-10T12:22:01;4.85;;;2.78;;
65162;SDS011;51751;55.714;37.436;2022-07-10T12:24:30;6.75;;;2.95;;
65162;SDS011;51751;55.714;37.436;2022-07-10T12:27:01;6.82;;;2.83;;
65162;SDS011;51751;55.714;37.436;2022-07-10T12:29:30;9.05;;;2.80;;
65162;SDS011;51751;55.714;37.436;2022-07-10T12:31:56;5.20;;;2.58;;
65162;SDS011;51751;55.714;37.436;2022-07-10T12:34:36;8.75;;;2.83;;
65162;SDS011;51751;55.714;37.436;2022-07-10T12:37:08;5.25;;;2.70;;
65162;SDS011;51751;55.714;37.436;2022-07-10T12:39:48;6.22;;;3.03;;
65162;SDS011;51751;55.714;37.436;2022-07-10T12:42:26;5.25;;;2.90;;
65162;SDS011;51751;55.714;37.436;2022-07-10T12:44:53;7.50;;;2.63;;
65162;SDS011;51751;55.714;37.436;2022-07-10T12:47:22;16.55;;;3.00;;
65162;SDS011;51751;55.714;37.436;2022-07-10T12:49:51;8.75;;;3.08;;
65162;SDS011;51751;55.714;37.436;2022-07-10T12:55:07;5.47;;;2.80;;
65162;SDS011;51751;55.714;37.436;2022-07-10T12:57:51;4.97;;;2.67;;
65162;SDS011;51751;55.714;37.436;2022-07-10T13:00:24;8.23;;;2.67;;
65162;SDS011;51751;55.714;37.436;2022-07-10T13:02:58;10.75;;;2.90;;
65162;SDS011;51751;55.714;37.436;2022-07-10T13:10:51;6.32;;;3.05;;
65162;SDS011;51751;55.714;37.436;2022-07-10T13:13:20;8.57;;;2.92;;
65162;SDS011;51751;55.714;37.436;2022-07-10T13:15:47;9.88;;;3.00;;
65162;SDS011;51751;55.714;37.436;2022-07-10T13:18:19;7.07;;;2.63;;
65162;SDS011;51751;55.714;37.436;2022-07-10T13:20:50;5.45;;;2.47;;
65162;SDS011;51751;55.714;37.436;2022-07-10T13:23:17;7.43;;;3.10;;
65162;SDS011;51751;55.714;37.436;2022-07-10T13:25:48;15.95;;;3.55;;
65162;SDS011;51751;55.714;37.436;2022-07-10T13:28:14;9.88;;;3.45;;
65162;SDS011;51751;55.714;37.436;2022-07-10T13:30:42;7.60;;;3.10;;
65162;SDS011;51751;55.714;37.436;2022-07-10T13:33:08;4.25;;;2.80;;
65162;SDS011;51751;55.714;37.436;2022-07-10T13:35:34;10.02;;;2.92;;
65162;SDS011;51751;55.714;37.436;2022-07-10T13:38:04;17.77;;;3.65;;
65162;SDS011;51751;55.714;37.436;2022-07-10T13:40:31;8.45;;;2.72;;
65162;SDS011;51751;55.714;37.436;2022-07-10T13:42:58;8.68;;;3.22;;
65162;SDS011;51751;55.714;37.436;2022-07-10T13:45:24;6.95;;;3.08;;
65162;SDS011;51751;55.714;37.436;2022-07-10T13:47:52;13.82;;;2.90;;
65162;SDS011;51751;55.714;37.436;2022-07-10T13:50:21;16.60;;;3.13;;
65162;SDS011;51751;55.714;37.436;2022-07-10T13:52:49;13.35;;;3.50;;
65162;SDS011;51751;55.714;37.436;2022-07-10T13:55:15;9.80;;;2.85;;
65162;SDS011;51751;55.714;37.436;2022-07-10T13:57:41;8.90;;;3.08;;
65162;SDS011;51751;55.714;37.436;2022-07-10T14:00:07;7.53;;;2.80;;
65162;SDS011;51751;55.714;37.436;2022-07-10T14:05:11;12.38;;;3.20;;
65162;SDS011;51751;55.714;37.436;2022-07-10T14:07:37;7.05;;;3.00;;
65162;SDS011;51751;55.714;37.436;2022-07-10T14:10:03;7.10;;;3.38;;
65162;SDS011;51751;55.714;37.436;2022-07-10T14:12:29;10.23;;;3.53;;
65162;SDS011;51751;55.714;37.436;2022-07-10T14:14:57;9.65;;;3.20;;
65162;SDS011;51751;55.714;37.436;2022-07-10T14:17:41;10.23;;;3.47;;
65162;SDS011;51751;55.714;37.436;2022-07-10T14:20:09;8.05;;;2.80;;
65162;SDS011;51751;55.714;37.436;2022-07-10T14:22:35;8.57;;;3.00;;
65162;SDS011;51751;55.714;37.436;2022-07-10T14:25:02;13.02;;;3.38;;
65162;SDS011;51751;55.714;37.436;2022-07-10T14:27:32;6.80;;;3.15;;
65162;SDS011;51751;55.714;37.436;2022-07-10T14:29:58;13.82;;;3.40;;
65162;SDS011;51751;55.714;37.436;2022-07-10T14:32:24;28.38;;;2.22;;
65162;SDS011;51751;55.714;37.436;2022-07-10T14:34:50;33.72;;;2.70;;
65162;SDS011;51751;55.714;37.436;2022-07-10T14:37:16;13.43;;;1.90;;
65162;SDS011;51751;55.714;37.436;2022-07-10T14:40:01;10.53;;;1.90;;
65162;SDS011;51751;55.714;37.436;2022-07-10T14:42:29;11.43;;;2.13;;
65162;SDS011;51751;55.714;37.436;2022-07-10T14:44:55;12.20;;;2.13;;
65162;SDS011;51751;55.714;37.436;2022-07-10T14:47:21;3.97;;;2.03;;
65162;SDS011;51751;55.714;37.436;2022-07-10T14:49:47;11.30;;;2.58;;
65162;SDS011;51751;55.714;37.436;2022-07-10T14:52:22;5.15;;;2.17;;
65162;SDS011;51751;55.714;37.436;2022-07-10T14:54:50;8.75;;;2.30;;
65162;SDS011;51751;55.714;37.436;2022-07-10T14:57:18;9.82;;;2.33;;
65162;SDS011;51751;55.714;37.436;2022-07-10T14:59:47;7.88;;;3.15;;
65162;SDS011;51751;55.714;37.436;2022-07-10T15:02:16;5.63;;;2.20;;
65162;SDS011;51751;55.714;37.436;2022-07-10T15:04:45;4.30;;;2.72;;
65162;SDS011;51751;55.714;37.436;2022-07-10T15:07:11;5.82;;;2.60;;
65162;SDS011;51751;55.714;37.436;2022-07-10T15:09:37;10.85;;;2.97;;
65162;SDS011;51751;55.714;37.436;2022-07-10T15:12:04;11.35;;;3.03;;
65162;SDS011;51751;55.714;37.436;2022-07-10T15:14:30;8.00;;;2.78;;
65162;SDS011;51751;55.714;37.436;2022-07-10T15:16:59;6.85;;;2.90;;
65162;SDS011;51751;55.714;37.436;2022-07-10T15:19:25;4.50;;;2.45;;